Time;durP1;ratioP1;P1;durP2;ratioP2;P2;SDS_P1;SDS_P2;PMS_P1;PMS_P2;Temp;Humidity;BMP_temperature;BMP_pressure;BME280_temperature;BME280_humidity;BME280_pressure;Samples;Min_cycle;Max_cycle;Signal;HPM_P1;HPM_P2
2021/06/27 00:02:12;;;;;;;16.00;11.95;;;;;;;;;;4984877;28;20022;-66
2021/06/27 00:04:37;;;;;;;19.33;12.55;;;;;;;;;;4985806;28;20039;-66
2021/06/27 00:07:03;;;;;;;19.33;12.52;;;;;;;;;;4984341;28;20113;-66
2021/06/27 00:09:28;;;;;;;17.20;12.18;;;;;;;;;;4986061;28;20029;-66
2021/06/27 00:11:54;;;;;;;18.13;12.90;;;;;;;;;;4985621;28;20030;-66
2021/06/27 00:14:20;;;;;;;20.10;12.57;;;;;;;;;;4985058;28;20069;-66
2021/06/27 00:16:46;;;;;;;24.40;14.27;;;;;;;;;;4985499;28;20170;-66
2021/06/27 00:19:11;;;;;;;21.05;12.90;;;;;;;;;;4985133;28;20481;-66
2021/06/27 00:21:37;;;;;;;16.90;12.15;;;;;;;;;;4984884;28;20045;-66
2021/06/27 00:24:03;;;;;;;20.55;12.57;;;;;;;;;;4985566;28;20060;-66
2021/06/27 00:26:30;;;;;;;15.77;11.60;;;;;;;;;;4984605;28;20426;-66
2021/06/27 00:28:56;;;;;;;21.00;13.02;;;;;;;;;;4984246;28;20026;-66
2021/06/27 00:31:22;;;;;;;19.02;11.98;;;;;;;;;;4985264;28;20028;-66
2021/06/27 00:33:47;;;;;;;18.23;12.80;;;;;;;;;;4985015;28;20038;-66
2021/06/27 00:36:13;;;;;;;18.17;12.52;;;;;;;;;;4972675;28;20092;-66
2021/06/27 00:38:38;;;;;;;22.17;12.60;;;;;;;;;;4976210;28;20034;-66
2021/06/27 00:41:05;;;;;;;21.88;13.13;;;;;;;;;;4984857;28;20033;-66
2021/06/27 00:43:31;;;;;;;19.70;12.43;;;;;;;;;;4984335;28;20034;-66
2021/06/27 00:45:57;;;;;;;17.55;12.52;;;;;;;;;;4985158;28;20049;-66
2021/06/27 00:48:23;;;;;;;17.40;11.77;;;;;;;;;;4983861;28;20405;-66
2021/06/27 00:50:51;;;;;;;20.88;12.32;;;;;;;;;;4985016;28;20041;-66
2021/06/27 00:53:16;;;;;;;20.98;12.35;;;;;;;;;;4985001;28;20101;-66
2021/06/27 00:55:43;;;;;;;18.13;13.02;;;;;;;;;;4984405;28;20494;-66
2021/06/27 00:58:09;;;;;;;18.15;12.60;;;;;;;;;;4985187;28;20112;-66
2021/06/27 01:00:40;;;;;;;19.17;12.98;;;;;;;;;;4984775;28;20505;-66
2021/06/27 01:03:06;;;;;;;20.38;12.48;;;;;;;;;;4984953;28;20154;-66
2021/06/27 01:05:37;;;;;;;19.25;13.07;;;;;;;;;;4985441;28;20091;-66
2021/06/27 01:08:02;;;;;;;17.42;11.95;;;;;;;;;;4984146;28;20027;-66
2021/06/27 01:10:30;;;;;;;16.30;11.98;;;;;;;;;;4985312;28;20041;-66
2021/06/27 01:12:56;;;;;;;19.90;13.00;;;;;;;;;;4984385;28;20022;-66
2021/06/27 01:15:22;;;;;;;18.33;12.52;;;;;;;;;;4984204;28;20121;-66
2021/06/27 01:17:50;;;;;;;23.05;13.50;;;;;;;;;;4984795;28;20037;-66
2021/06/27 01:20:25;;;;;;;19.35;12.55;;;;;;;;;;4984396;28;20033;-66
2021/06/27 01:22:52;;;;;;;18.92;12.20;;;;;;;;;;4984260;28;20030;-66
2021/06/27 01:25:21;;;;;;;18.02;12.52;;;;;;;;;;4984872;28;20043;-66
2021/06/27 01:27:46;;;;;;;17.88;11.35;;;;;;;;;;4983170;28;20026;-66
2021/06/27 01:30:12;;;;;;;17.83;12.02;;;;;;;;;;4981724;28;20027;-66
2021/06/27 01:32:40;;;;;;;17.95;12.40;;;;;;;;;;4984394;28;20117;-66
2021/06/27 01:35:15;;;;;;;17.42;12.13;;;;;;;;;;4984236;28;20019;-66
2021/06/27 01:37:43;;;;;;;18.33;12.38;;;;;;;;;;4983753;28;20517;-66
2021/06/27 01:40:08;;;;;;;19.27;12.88;;;;;;;;;;4984488;28;20026;-66
2021/06/27 01:42:34;;;;;;;17.58;11.82;;;;;;;;;;4984924;28;20033;-66
2021/06/27 01:45:18;;;;;;;18.77;13.52;;;;;;;;;;4983279;28;20030;-66
2021/06/27 01:47:55;;;;;;;17.10;11.77;;;;;;;;;;4965234;28;20497;-66
2021/06/27 01:50:22;;;;;;;16.80;12.25;;;;;;;;;;4968739;28;20027;-66
2021/06/27 01:52:47;;;;;;;19.02;12.15;;;;;;;;;;4974598;28;20152;-66
2021/06/27 01:55:13;;;;;;;18.17;12.73;;;;;;;;;;4987475;28;20093;-66
2021/06/27 01:57:38;;;;;;;18.80;13.38;;;;;;;;;;4971160;28;20031;-66
2021/06/27 05:33:55;;;;;;;8.27;5.97;;;;;;;;;;5077747;27;21164;-65
2021/06/27 05:36:21;;;;;;;9.48;6.13;;;;;;;;;;5079851;28;20032;-65
2021/06/27 05:38:46;;;;;;;9.10;5.97;;;;;;;;;;5079843;28;20020;-65
2021/06/27 05:41:12;;;;;;;7.80;6.15;;;;;;;;;;5085145;28;20142;-66
2021/06/27 05:43:37;;;;;;;7.25;5.63;;;;;;;;;;5064517;28;20641;-66
2021/06/27 05:46:02;;;;;;;8.35;5.85;;;;;;;;;;5052526;28;20041;-66
2021/06/27 05:48:28;;;;;;;6.80;5.35;;;;;;;;;;5060043;28;20035;-66
2021/06/27 05:50:54;;;;;;;7.03;4.82;;;;;;;;;;5052368;28;20098;-65
2021/06/27 05:53:19;;;;;;;7.50;4.45;;;;;;;;;;5049929;28;20450;-65
2021/06/27 05:55:44;;;;;;;6.60;5.13;;;;;;;;;;5044328;28;20114;-66
2021/06/27 05:58:10;;;;;;;7.15;5.22;;;;;;;;;;5049186;28;20029;-66
2021/06/27 06:00:35;;;;;;;9.27;5.88;;;;;;;;;;5058111;28;20035;-66
2021/06/27 06:03:00;;;;;;;7.03;4.47;;;;;;;;;;5068658;28;20062;-65
2021/06/27 06:05:26;;;;;;;7.57;4.43;;;;;;;;;;5062441;28;20397;-69
2021/06/27 06:07:52;;;;;;;7.45;4.70;;;;;;;;;;5072295;28;20492;-66
2021/06/27 06:10:18;;;;;;;6.97;5.20;;;;;;;;;;5058407;28;20028;-65
2021/06/27 06:12:43;;;;;;;6.53;4.65;;;;;;;;;;5065980;28;20032;-66
2021/06/27 06:15:09;;;;;;;6.68;4.60;;;;;;;;;;5061267;28;20457;-65
2021/06/27 06:17:34;;;;;;;7.93;5.03;;;;;;;;;;5057021;28;20035;-65
2021/06/27 06:20:00;;;;;;;6.15;4.05;;;;;;;;;;5063866;28;20017;-65
2021/06/27 06:22:25;;;;;;;5.60;4.32;;;;;;;;;;5069382;28;20016;-65
2021/06/27 06:24:50;;;;;;;5.15;4.03;;;;;;;;;;5050083;28;20028;-66
2021/06/27 06:27:16;;;;;;;5.53;4.00;;;;;;;;;;5057544;28;20381;-76
2021/06/27 06:29:41;;;;;;;4.68;3.53;;;;;;;;;;5060014;28;20531;-80
2021/06/27 06:32:07;;;;;;;5.05;3.50;;;;;;;;;;5066029;28;20186;-75
2021/06/27 06:34:32;;;;;;;5.47;4.03;;;;;;;;;;5064089;28;20042;-70
2021/06/27 06:36:58;;;;;;;6.03;4.10;;;;;;;;;;5062713;28;20040;-70
2021/06/27 06:39:23;;;;;;;5.50;4.25;;;;;;;;;;5058412;28;20104;-69
2021/06/27 06:41:48;;;;;;;5.53;3.88;;;;;;;;;;5064710;28;20052;-74
2021/06/27 06:44:14;;;;;;;6.60;4.43;;;;;;;;;;5051296;28;20033;-76
2021/06/27 06:46:40;;;;;;;6.90;3.70;;;;;;;;;;5024949;28;20049;-74
2021/06/27 06:49:06;;;;;;;6.07;4.20;;;;;;;;;;5038380;28;20429;-75
2021/06/27 06:51:31;;;;;;;6.00;3.88;;;;;;;;;;5033287;28;20839;-73
2021/06/27 06:53:56;;;;;;;9.23;4.45;;;;;;;;;;5043134;28;20048;-76
2021/06/27 06:56:22;;;;;;;5.35;3.95;;;;;;;;;;5043013;28;20024;-74
2021/06/27 06:58:47;;;;;;;6.00;4.22;;;;;;;;;;5041006;28;20025;-74
2021/06/27 07:01:12;;;;;;;5.30;3.70;;;;;;;;;;5044544;28;20028;-77
2021/06/27 07:03:38;;;;;;;5.22;3.85;;;;;;;;;;5038994;28;20025;-75
2021/06/27 07:06:03;;;;;;;6.43;4.00;;;;;;;;;;5037788;28;20035;-75
2021/06/27 07:08:29;;;;;;;7.00;3.35;;;;;;;;;;5044065;28;20047;-77
2021/06/27 07:10:55;;;;;;;5.55;3.60;;;;;;;;;;5046747;28;20064;-77
2021/06/27 07:13:21;;;;;;;8.05;3.17;;;;;;;;;;5032667;28;20017;-78
2021/06/27 07:15:47;;;;;;;4.78;3.10;;;;;;;;;;5042846;28;20542;-75
2021/06/27 07:18:12;;;;;;;4.78;3.63;;;;;;;;;;5036243;28;20032;-77
2021/06/27 07:20:38;;;;;;;4.30;2.72;;;;;;;;;;5045628;28;20037;-75
2021/06/27 07:23:03;;;;;;;3.75;2.55;;;;;;;;;;5029404;28;20024;-78
2021/06/27 07:25:29;;;;;;;4.75;3.00;;;;;;;;;;5036355;28;20025;-78
2021/06/27 07:27:54;;;;;;;5.13;2.88;;;;;;;;;;5031657;28;20087;-74
2021/06/27 07:30:20;;;;;;;5.75;3.20;;;;;;;;;;5044479;28;20666;-75
2021/06/27 07:32:45;;;;;;;4.72;3.17;;;;;;;;;;5037383;28;20021;-77
2021/06/27 07:35:12;;;;;;;4.50;2.95;;;;;;;;;;5039004;28;20057;-76
2021/06/27 07:37:37;;;;;;;4.38;2.70;;;;;;;;;;5045696;28;20056;-75
2021/06/27 07:40:03;;;;;;;4.65;2.90;;;;;;;;;;5039798;28;20045;-74
2021/06/27 07:42:29;;;;;;;4.22;2.88;;;;;;;;;;5040604;28;20021;-75
2021/06/27 07:44:54;;;;;;;5.57;3.10;;;;;;;;;;5044328;28;20024;-75
2021/06/27 07:47:19;;;;;;;3.80;2.90;;;;;;;;;;5047600;28;20020;-75
2021/06/27 07:49:45;;;;;;;4.75;3.30;;;;;;;;;;5038604;28;20040;-74
2021/06/27 07:52:11;;;;;;;4.38;2.97;;;;;;;;;;5029000;28;20104;-75
2021/06/27 07:54:37;;;;;;;5.10;3.42;;;;;;;;;;5043772;28;20120;-75
2021/06/27 07:57:03;;;;;;;4.80;3.20;;;;;;;;;;5034319;28;20024;-75
2021/06/27 07:59:29;;;;;;;4.10;2.95;;;;;;;;;;5038924;28;20036;-74
2021/06/27 08:01:54;;;;;;;4.47;3.45;;;;;;;;;;5043941;28;20074;-77
2021/06/27 08:04:19;;;;;;;4.07;2.67;;;;;;;;;;5030798;28;20055;-75
2021/06/27 08:06:44;;;;;;;3.70;2.63;;;;;;;;;;5046052;28;20089;-77
2021/06/27 08:09:10;;;;;;;7.00;3.22;;;;;;;;;;5047032;28;20033;-75
2021/06/27 08:11:35;;;;;;;4.43;2.85;;;;;;;;;;5035133;28;20525;-74
2021/06/27 08:14:02;;;;;;;4.32;2.65;;;;;;;;;;5046861;28;20107;-75
2021/06/27 08:16:27;;;;;;;4.30;2.78;;;;;;;;;;5037914;28;20025;-75
2021/06/27 08:18:52;;;;;;;4.97;3.13;;;;;;;;;;5026331;28;20108;-78
2021/06/27 08:21:19;;;;;;;4.00;2.90;;;;;;;;;;5048642;28;20028;-77
2021/06/27 08:23:45;;;;;;;4.38;3.00;;;;;;;;;;5054554;28;20369;-78
2021/06/27 08:26:10;;;;;;;4.05;2.70;;;;;;;;;;5046536;28;20046;-76
2021/06/27 08:28:36;;;;;;;4.75;3.10;;;;;;;;;;5035944;28;20160;-75
2021/06/27 08:31:01;;;;;;;4.03;2.92;;;;;;;;;;5031889;28;20099;-76
2021/06/27 08:33:27;;;;;;;4.82;2.80;;;;;;;;;;5031216;28;20052;-75
2021/06/27 08:35:52;;;;;;;3.88;2.65;;;;;;;;;;5046995;28;20574;-76
2021/06/27 08:38:18;;;;;;;4.05;2.70;;;;;;;;;;5041883;28;20033;-76
2021/06/27 08:40:43;;;;;;;4.47;3.05;;;;;;;;;;5043329;28;20027;-79
2021/06/27 08:43:10;;;;;;;4.53;3.42;;;;;;;;;;5043825;28;20107;-75
2021/06/27 08:45:53;;;;;;;4.20;3.10;;;;;;;;;;5037828;28;20032;-75
2021/06/27 08:48:20;;;;;;;4.38;3.20;;;;;;;;;;5041849;28;20127;-74
2021/06/27 08:50:47;;;;;;;4.65;3.33;;;;;;;;;;5034267;28;20131;-75
2021/06/27 08:53:13;;;;;;;4.80;3.35;;;;;;;;;;5048660;28;20024;-74
2021/06/27 08:55:38;;;;;;;4.75;3.55;;;;;;;;;;5044624;28;20037;-75
2021/06/27 08:58:03;;;;;;;4.90;3.28;;;;;;;;;;5026064;28;20039;-77
2021/06/27 09:00:29;;;;;;;4.47;3.20;;;;;;;;;;5024010;28;20025;-75
2021/06/27 09:02:54;;;;;;;4.40;3.03;;;;;;;;;;5037700;28;20096;-75
2021/06/27 09:05:20;;;;;;;4.72;3.50;;;;;;;;;;5025228;28;20025;-78
2021/06/27 09:07:46;;;;;;;4.20;3.10;;;;;;;;;;5035834;28;20071;-78
2021/06/27 09:10:17;;;;;;;5.63;3.13;;;;;;;;;;5033818;28;20025;-75
2021/06/27 09:12:50;;;;;;;5.10;3.10;;;;;;;;;;5045827;28;20645;-75
2021/06/27 09:15:41;;;;;;;4.50;3.38;;;;;;;;;;5034570;28;20030;-75
2021/06/27 09:18:11;;;;;;;5.15;3.33;;;;;;;;;;5026083;28;20539;-75
2021/06/27 09:20:37;;;;;;;4.50;3.63;;;;;;;;;;5036823;28;20070;-75
2021/06/27 09:23:03;;;;;;;6.25;3.15;;;;;;;;;;5026221;28;20996;-75
2021/06/27 09:25:30;;;;;;;4.38;3.40;;;;;;;;;;5023039;28;20037;-76
2021/06/27 09:28:09;;;;;;;6.15;3.33;;;;;;;;;;5025041;28;20025;-76
2021/06/27 09:30:37;;;;;;;5.05;3.17;;;;;;;;;;5024779;28;20408;-75
2021/06/27 09:33:16;;;;;;;4.47;3.03;;;;;;;;;;5024990;28;20117;-78
2021/06/27 09:35:43;;;;;;;5.13;2.83;;;;;;;;;;5040814;28;20025;-76
2021/06/27 09:38:27;;;;;;;4.20;2.75;;;;;;;;;;5044798;28;20021;-75
2021/06/27 09:40:58;;;;;;;4.22;2.90;;;;;;;;;;5030107;28;20031;-75
2021/06/27 09:43:24;;;;;;;3.90;2.58;;;;;;;;;;5054145;28;20051;-75
2021/06/27 09:45:56;;;;;;;3.30;2.28;;;;;;;;;;5042305;28;20036;-76
2021/06/27 09:48:21;;;;;;;3.47;2.50;;;;;;;;;;5033596;28;20021;-76
2021/06/27 09:50:47;;;;;;;3.92;2.60;;;;;;;;;;5033076;28;20029;-75
2021/06/27 09:53:35;;;;;;;3.63;2.50;;;;;;;;;;5042627;28;20293;-75
2021/06/27 09:56:02;;;;;;;4.18;2.38;;;;;;;;;;5045653;28;20025;-75
2021/06/27 09:58:28;;;;;;;4.32;2.53;;;;;;;;;;5044642;28;20024;-75
2021/06/27 10:00:56;;;;;;;3.28;2.03;;;;;;;;;;5037746;28;20364;-76
2021/06/27 10:03:22;;;;;;;2.85;2.00;;;;;;;;;;5037031;28;20025;-76
2021/06/27 10:05:47;;;;;;;3.20;2.15;;;;;;;;;;5039344;28;20388;-74
2021/06/27 10:08:29;;;;;;;4.00;2.47;;;;;;;;;;5051407;28;20097;-75
2021/06/27 10:11:08;;;;;;;3.47;2.30;;;;;;;;;;5044316;28;20032;-75
2021/06/27 10:13:34;;;;;;;3.90;2.60;;;;;;;;;;5042739;28;20055;-77
2021/06/27 10:16:00;;;;;;;4.03;2.40;;;;;;;;;;5046769;28;20036;-74
2021/06/27 10:18:26;;;;;;;3.45;2.35;;;;;;;;;;5046574;28;20772;-75
2021/06/27 10:20:53;;;;;;;3.08;2.20;;;;;;;;;;5042070;28;20029;-76
2021/06/27 10:23:19;;;;;;;3.95;2.30;;;;;;;;;;5039168;28;20064;-77
2021/06/27 10:25:45;;;;;;;4.05;2.50;;;;;;;;;;5047595;28;20043;-75
2021/06/27 10:28:10;;;;;;;3.33;2.25;;;;;;;;;;5040896;28;20504;-76
2021/06/27 10:30:36;;;;;;;3.65;2.35;;;;;;;;;;5040999;28;20113;-75
2021/06/27 10:33:03;;;;;;;3.83;2.33;;;;;;;;;;5035572;28;20021;-75
2021/06/27 10:35:29;;;;;;;4.47;2.30;;;;;;;;;;5049264;28;20025;-75
2021/06/27 10:37:56;;;;;;;3.53;2.15;;;;;;;;;;5039709;28;20028;-76
2021/06/27 10:40:21;;;;;;;3.78;2.50;;;;;;;;;;5069374;28;20440;-76
2021/06/27 10:42:49;;;;;;;2.95;2.20;;;;;;;;;;5065856;28;20472;-75
2021/06/27 10:45:16;;;;;;;3.75;2.00;;;;;;;;;;5048762;28;20037;-75
2021/06/27 10:47:42;;;;;;;3.67;2.17;;;;;;;;;;5042892;28;20099;-77
2021/06/27 10:50:09;;;;;;;3.03;2.03;;;;;;;;;;5059797;28;20484;-75
2021/06/27 10:52:50;;;;;;;2.50;1.65;;;;;;;;;;5044107;28;20021;-77
2021/06/27 10:55:19;;;;;;;2.55;1.60;;;;;;;;;;5051472;28;20369;-75
2021/06/27 10:57:56;;;;;;;3.38;2.10;;;;;;;;;;5058319;28;20035;-75
2021/06/27 11:00:23;;;;;;;3.38;2.28;;;;;;;;;;5061026;28;20429;-75
2021/06/27 11:02:49;;;;;;;3.08;1.92;;;;;;;;;;5050717;28;20060;-74
2021/06/27 11:05:32;;;;;;;2.75;1.73;;;;;;;;;;5040800;28;20056;-75
2021/06/27 11:07:59;;;;;;;3.10;1.90;;;;;;;;;;5058737;28;20035;-76
2021/06/27 11:10:25;;;;;;;2.22;1.70;;;;;;;;;;5058430;28;20012;-75
2021/06/27 11:12:56;;;;;;;2.90;1.92;;;;;;;;;;5051072;28;20025;-76
2021/06/27 11:15:23;;;;;;;3.13;2.05;;;;;;;;;;5046539;28;20396;-79
2021/06/27 11:17:52;;;;;;;2.97;1.73;;;;;;;;;;5044392;28;20021;-74
2021/06/27 11:20:18;;;;;;;3.50;1.80;;;;;;;;;;5050991;28;20028;-77
2021/06/27 11:22:48;;;;;;;3.95;2.20;;;;;;;;;;5051299;28;20024;-76
2021/06/27 11:25:42;;;;;;;2.97;1.92;;;;;;;;;;5053603;28;20114;-75
2021/06/27 11:28:20;;;;;;;2.45;1.70;;;;;;;;;;5053165;28;20037;-76
2021/06/27 11:30:46;;;;;;;3.83;1.88;;;;;;;;;;5052478;28;20028;-75
2021/06/27 11:33:22;;;;;;;2.97;1.92;;;;;;;;;;5057486;28;20043;-75
2021/06/27 11:35:55;;;;;;;3.08;1.73;;;;;;;;;;5048966;28;20036;-75
2021/06/27 11:38:39;;;;;;;2.72;1.98;;;;;;;;;;5049337;28;20426;-75
2021/06/27 11:41:09;;;;;;;3.05;1.90;;;;;;;;;;5055872;28;20082;-75
2021/06/27 11:44:14;;;;;;;2.28;1.60;;;;;;;;;;5043056;28;20029;-75
2021/06/27 11:46:42;;;;;;;2.83;1.70;;;;;;;;;;5037087;28;20029;-75
2021/06/27 11:49:13;;;;;;;3.13;1.63;;;;;;;;;;5035684;28;20056;-76
2021/06/27 11:51:45;;;;;;;3.63;1.90;;;;;;;;;;5035978;28;20029;-78
2021/06/27 11:54:13;;;;;;;2.55;1.77;;;;;;;;;;5036246;28;20411;-78
2021/06/27 11:57:05;;;;;;;2.92;1.75;;;;;;;;;;5035150;28;20661;-76
2021/06/27 11:59:36;;;;;;;3.00;1.75;;;;;;;;;;5039905;28;20031;-75
2021/06/27 12:02:19;;;;;;;2.95;1.95;;;;;;;;;;5037986;28;20373;-75
2021/06/27 12:04:52;;;;;;;2.67;1.50;;;;;;;;;;5035270;28;20029;-77
2021/06/27 12:07:39;;;;;;;3.03;1.65;;;;;;;;;;5034785;28;20020;-75
2021/06/27 12:10:20;;;;;;;3.33;1.85;;;;;;;;;;5035876;28;20021;-75
2021/06/27 12:13:09;;;;;;;2.88;1.80;;;;;;;;;;5033847;28;20133;-76
2021/06/27 12:15:47;;;;;;;3.28;2.00;;;;;;;;;;5036081;28;20021;-76
2021/06/27 12:18:17;;;;;;;2.58;1.80;;;;;;;;;;5034072;28;20031;-76
2021/06/27 12:20:46;;;;;;;2.70;1.80;;;;;;;;;;5035460;28;20415;-75
2021/06/27 12:23:21;;;;;;;2.60;1.70;;;;;;;;;;5032213;28;20725;-76
2021/06/27 12:25:51;;;;;;;3.42;1.85;;;;;;;;;;5036846;28;20091;-74
2021/06/27 12:28:37;;;;;;;2.45;1.67;;;;;;;;;;5031521;28;20043;-75
2021/06/27 12:31:08;;;;;;;2.80;1.70;;;;;;;;;;5033313;28;20017;-75
2021/06/27 12:33:40;;;;;;;2.78;1.80;;;;;;;;;;5035949;28;20025;-77
2021/06/27 12:36:11;;;;;;;4.35;1.70;;;;;;;;;;5034159;28;21275;-75
2021/06/27 12:38:39;;;;;;;2.78;1.85;;;;;;;;;;5037894;28;20099;-75
2021/06/27 12:41:06;;;;;;;2.70;1.90;;;;;;;;;;5036114;28;20407;-76
2021/06/27 12:43:35;;;;;;;2.95;1.92;;;;;;;;;;5035568;28;20695;-76
2021/06/27 12:46:17;;;;;;;2.50;1.67;;;;;;;;;;5034874;28;20112;-77
2021/06/27 12:48:45;;;;;;;2.80;1.85;;;;;;;;;;5054418;28;20626;-75
2021/06/27 12:51:32;;;;;;;2.20;1.52;;;;;;;;;;5025503;28;20037;-74
2021/06/27 12:54:00;;;;;;;2.83;1.83;;;;;;;;;;5042285;28;20055;-76
2021/06/27 12:56:47;;;;;;;2.78;1.80;;;;;;;;;;5043848;28;20624;-76
2021/06/27 12:59:14;;;;;;;2.75;1.92;;;;;;;;;;5032673;28;20029;-77
2021/06/27 13:01:59;;;;;;;3.33;2.10;;;;;;;;;;5032358;28;20037;-75
2021/06/27 13:04:27;;;;;;;2.47;1.60;;;;;;;;;;5034542;28;20131;-74
2021/06/27 13:06:54;;;;;;;2.13;1.42;;;;;;;;;;5036028;28;20025;-75
2021/06/27 13:09:19;;;;;;;3.95;2.30;;;;;;;;;;5033806;28;20488;-75
2021/06/27 13:12:14;;;;;;;3.53;1.98;;;;;;;;;;5038605;28;20035;-75
2021/06/27 13:14:44;;;;;;;3.42;2.35;;;;;;;;;;5034684;28;20070;-74
2021/06/27 13:17:13;;;;;;;2.67;1.70;;;;;;;;;;5032703;28;20124;-74
2021/06/27 13:20:21;;;;;;;4.25;2.30;;;;;;;;;;5040501;28;20119;-75
2021/06/27 13:22:54;;;;;;;2.80;1.85;;;;;;;;;;5030639;28;20732;-75
2021/06/27 13:25:43;;;;;;;2.85;1.90;;;;;;;;;;5036889;28;20037;-75
2021/06/27 13:28:32;;;;;;;3.13;1.70;;;;;;;;;;5024141;28;20530;-75
2021/06/27 13:31:06;;;;;;;3.40;1.92;;;;;;;;;;5055234;28;20025;-77
2021/06/27 13:33:40;;;;;;;2.80;1.67;;;;;;;;;;5029000;28;20550;-75
2021/06/27 13:36:13;;;;;;;4.18;2.10;;;;;;;;;;5030054;28;20108;-75
2021/06/27 13:38:45;;;;;;;3.25;1.92;;;;;;;;;;5051342;28;20020;-75
2021/06/27 13:41:10;;;;;;;3.22;2.00;;;;;;;;;;5054039;28;20082;-75
2021/06/27 13:43:36;;;;;;;3.55;1.92;;;;;;;;;;5049164;28;20435;-76
2021/06/27 13:46:03;;;;;;;3.15;1.80;;;;;;;;;;5046241;28;20068;-75
2021/06/27 13:48:29;;;;;;;3.10;1.90;;;;;;;;;;5039926;28;20029;-75
2021/06/27 13:50:54;;;;;;;3.00;1.70;;;;;;;;;;5021917;28;20033;-77
2021/06/27 13:53:20;;;;;;;3.17;2.00;;;;;;;;;;5040630;28;20028;-75
2021/06/27 13:55:46;;;;;;;2.88;2.08;;;;;;;;;;5049978;28;20028;-76
2021/06/27 13:58:12;;;;;;;3.10;1.95;;;;;;;;;;5056376;28;20060;-76
2021/06/27 14:00:37;;;;;;;7.32;2.65;;;;;;;;;;5047274;28;20378;-73
2021/06/27 14:03:03;;;;;;;2.88;1.92;;;;;;;;;;5062010;28;20051;-75
2021/06/27 14:05:28;;;;;;;3.70;2.30;;;;;;;;;;5042908;28;20499;-76
2021/06/27 14:07:57;;;;;;;3.63;2.47;;;;;;;;;;5040724;28;20030;-76
2021/06/27 14:10:24;;;;;;;2.80;1.70;;;;;;;;;;5045733;28;20032;-75
2021/06/27 14:12:50;;;;;;;2.95;1.80;;;;;;;;;;5049074;28;20028;-75
2021/06/27 14:15:17;;;;;;;3.38;2.05;;;;;;;;;;5053226;28;20055;-75
2021/06/27 14:17:43;;;;;;;2.70;1.63;;;;;;;;;;5051247;28;20031;-75
2021/06/27 14:20:11;;;;;;;3.03;1.90;;;;;;;;;;5060030;28;20548;-75
2021/06/27 14:22:38;;;;;;;3.25;2.00;;;;;;;;;;5048477;28;20072;-76
2021/06/27 14:25:05;;;;;;;2.97;1.90;;;;;;;;;;5043277;28;20025;-75
2021/06/27 14:27:32;;;;;;;2.63;1.58;;;;;;;;;;5044756;28;20035;-75
2021/06/27 14:29:57;;;;;;;2.33;1.70;;;;;;;;;;5050996;28;20028;-75
2021/06/27 14:32:23;;;;;;;4.50;1.95;;;;;;;;;;5057328;28;20081;-75
2021/06/27 14:34:48;;;;;;;2.80;1.70;;;;;;;;;;5051358;28;20033;-76
2021/06/27 14:37:14;;;;;;;2.80;1.88;;;;;;;;;;5062303;28;20090;-75
2021/06/27 14:39:39;;;;;;;2.72;1.63;;;;;;;;;;5052515;28;20024;-75
2021/06/27 14:42:05;;;;;;;2.30;1.50;;;;;;;;;;5045169;28;20041;-74
2021/06/27 14:44:30;;;;;;;3.13;1.85;;;;;;;;;;5055764;28;20016;-75
2021/06/27 14:46:55;;;;;;;3.35;1.90;;;;;;;;;;5052298;28;20411;-74
2021/06/27 14:49:22;;;;;;;3.85;1.85;;;;;;;;;;5052744;28;20553;-74
2021/06/27 14:51:48;;;;;;;3.30;1.90;;;;;;;;;;5054158;28;20032;-74
2021/06/27 14:54:14;;;;;;;2.75;1.75;;;;;;;;;;5054027;28;20025;-75
2021/06/27 14:56:41;;;;;;;3.13;1.90;;;;;;;;;;5046066;28;20039;-76
2021/06/27 14:59:07;;;;;;;3.35;1.83;;;;;;;;;;5047619;28;20025;-74
2021/06/27 15:01:33;;;;;;;2.60;1.70;;;;;;;;;;5054130;28;20021;-75
2021/06/27 15:03:59;;;;;;;2.95;1.70;;;;;;;;;;5058141;28;20025;-75
2021/06/27 15:06:25;;;;;;;3.00;1.92;;;;;;;;;;5051684;28;20024;-74
2021/06/27 15:08:50;;;;;;;3.63;2.25;;;;;;;;;;5054202;28;20065;-75
2021/06/27 15:11:16;;;;;;;2.45;1.80;;;;;;;;;;5038878;28;20527;-75
2021/06/27 15:13:41;;;;;;;2.47;1.60;;;;;;;;;;5057637;28;20078;-74
2021/06/27 15:16:07;;;;;;;3.63;1.85;;;;;;;;;;5052848;28;20108;-75
2021/06/27 15:18:34;;;;;;;3.22;1.80;;;;;;;;;;5052284;28;20423;-73
2021/06/27 15:20:59;;;;;;;4.90;2.10;;;;;;;;;;5043643;28;20079;-75
2021/06/27 15:23:25;;;;;;;2.90;1.92;;;;;;;;;;5046508;28;20013;-75
2021/06/27 15:25:51;;;;;;;3.15;1.75;;;;;;;;;;5054589;28;20024;-75
2021/06/27 15:28:17;;;;;;;2.85;1.88;;;;;;;;;;5048116;28;20028;-74
2021/06/27 15:30:43;;;;;;;3.40;1.80;;;;;;;;;;5043025;28;20044;-76
2021/06/27 15:33:08;;;;;;;5.75;1.92;;;;;;;;;;5055344;28;20031;-76
2021/06/27 15:35:33;;;;;;;4.05;2.10;;;;;;;;;;5060141;28;20772;-75
2021/06/27 15:37:59;;;;;;;5.03;1.85;;;;;;;;;;5032934;28;20429;-76
2021/06/27 15:40:25;;;;;;;3.33;2.00;;;;;;;;;;5053291;28;20044;-74
2021/06/27 15:42:51;;;;;;;3.67;1.85;;;;;;;;;;5047662;28;20050;-75
2021/06/27 15:45:16;;;;;;;3.15;1.95;;;;;;;;;;5052255;28;20031;-75
2021/06/27 15:47:41;;;;;;;4.68;2.20;;;;;;;;;;5045361;28;20418;-75
2021/06/27 15:50:07;;;;;;;4.43;2.15;;;;;;;;;;5040876;28;20067;-74
2021/06/27 15:52:33;;;;;;;3.03;1.77;;;;;;;;;;5029642;28;20032;-74
2021/06/27 15:55:00;;;;;;;3.90;2.00;;;;;;;;;;5030200;28;20033;-74
2021/06/27 15:57:26;;;;;;;4.00;2.03;;;;;;;;;;5030024;28;20196;-75
2021/06/27 15:59:52;;;;;;;3.30;2.05;;;;;;;;;;5042435;28;20047;-75
2021/06/27 16:02:17;;;;;;;3.40;2.03;;;;;;;;;;5042213;28;20017;-74
2021/06/27 16:04:42;;;;;;;3.97;2.10;;;;;;;;;;5040262;28;20040;-74
2021/06/27 16:07:09;;;;;;;3.67;2.00;;;;;;;;;;5047250;28;20013;-76
2021/06/27 16:09:34;;;;;;;3.10;1.83;;;;;;;;;;5045760;28;20601;-74
2021/06/27 16:12:01;;;;;;;2.63;1.67;;;;;;;;;;5048448;28;20103;-76
2021/06/27 16:14:26;;;;;;;3.30;1.90;;;;;;;;;;5066075;28;20055;-74
2021/06/27 16:16:52;;;;;;;4.80;2.38;;;;;;;;;;5042089;28;20056;-76
2021/06/27 16:19:17;;;;;;;4.20;2.60;;;;;;;;;;5025569;28;20108;-74
2021/06/27 16:21:43;;;;;;;7.53;4.38;;;;;;;;;;5052698;28;20020;-75
2021/06/27 16:24:14;;;;;;;5.45;2.55;;;;;;;;;;5064991;28;20547;-75
2021/06/27 16:26:39;;;;;;;3.88;2.40;;;;;;;;;;5050183;28;20032;-75
2021/06/27 16:29:05;;;;;;;2.88;1.90;;;;;;;;;;5035261;28;20408;-74
2021/06/27 16:31:30;;;;;;;3.47;1.92;;;;;;;;;;5045193;28;20029;-74
2021/06/27 16:33:56;;;;;;;4.35;2.22;;;;;;;;;;5044373;28;20025;-74
2021/06/27 16:36:22;;;;;;;2.83;1.80;;;;;;;;;;5045134;28;20429;-75
2021/06/27 16:38:48;;;;;;;5.13;2.45;;;;;;;;;;5057922;28;20024;-75
2021/06/27 16:41:13;;;;;;;4.95;2.10;;;;;;;;;;5064556;28;20474;-75
2021/06/27 16:43:39;;;;;;;3.33;2.22;;;;;;;;;;5065368;28;20021;-75
2021/06/27 16:46:05;;;;;;;5.68;2.10;;;;;;;;;;5050886;28;20061;-75
2021/06/27 16:48:31;;;;;;;4.70;2.15;;;;;;;;;;5064303;28;20031;-75
2021/06/27 16:50:57;;;;;;;3.90;2.80;;;;;;;;;;5044582;28;20026;-75
2021/06/27 16:53:22;;;;;;;3.45;1.90;;;;;;;;;;5029189;28;20078;-74
2021/06/27 16:55:56;;;;;;;3.45;2.28;;;;;;;;;;5044208;28;20457;-74
2021/06/27 16:58:21;;;;;;;4.97;2.03;;;;;;;;;;5044850;28;20070;-74
2021/06/27 17:00:47;;;;;;;3.25;2.00;;;;;;;;;;5044496;28;20037;-74
2021/06/27 17:03:12;;;;;;;3.17;1.90;;;;;;;;;;5044901;28;20566;-75
2021/06/27 17:05:37;;;;;;;3.03;1.90;;;;;;;;;;5044296;28;20036;-76
2021/06/27 17:08:03;;;;;;;3.05;1.70;;;;;;;;;;5051229;28;20032;-74
2021/06/27 17:10:29;;;;;;;3.80;2.15;;;;;;;;;;5064690;28;20028;-75
2021/06/27 17:12:59;;;;;;;3.92;2.30;;;;;;;;;;5063085;28;20031;-75
2021/06/27 17:15:25;;;;;;;9.27;2.50;;;;;;;;;;5059817;28;20017;-75
2021/06/27 17:17:50;;;;;;;3.20;2.00;;;;;;;;;;5035261;28;20079;-75
2021/06/27 17:20:17;;;;;;;5.20;2.03;;;;;;;;;;5045563;28;20033;-76
2021/06/27 17:22:44;;;;;;;4.72;2.55;;;;;;;;;;5051852;28;20066;-74
2021/06/27 17:25:12;;;;;;;5.82;2.70;;;;;;;;;;5038499;28;20049;-77
2021/06/27 17:27:39;;;;;;;3.95;2.42;;;;;;;;;;5070045;28;20032;-64
2021/06/27 17:30:06;;;;;;;4.55;2.72;;;;;;;;;;5027440;28;20388;-64
2021/06/27 17:32:31;;;;;;;4.28;2.65;;;;;;;;;;5037410;28;20028;-65
2021/06/27 17:34:57;;;;;;;5.25;2.90;;;;;;;;;;5024477;28;20037;-65
2021/06/27 17:37:22;;;;;;;4.47;3.17;;;;;;;;;;5022812;28;20043;-64
2021/06/27 17:39:47;;;;;;;4.25;2.78;;;;;;;;;;5022345;28;20032;-65
2021/06/27 17:42:14;;;;;;;5.70;3.10;;;;;;;;;;5022117;28;20021;-64
2021/06/27 17:44:40;;;;;;;4.15;2.88;;;;;;;;;;5025203;28;20431;-64
2021/06/27 17:47:05;;;;;;;4.22;3.00;;;;;;;;;;5021423;28;20037;-65
2021/06/27 17:49:31;;;;;;;3.90;2.70;;;;;;;;;;5026607;28;20036;-65
2021/06/27 17:51:57;;;;;;;3.83;2.45;;;;;;;;;;5025360;28;20032;-65
2021/06/27 17:54:23;;;;;;;3.75;2.50;;;;;;;;;;5034240;28;20021;-63
2021/06/27 17:56:48;;;;;;;4.80;2.40;;;;;;;;;;5027314;28;20037;-64
2021/06/27 17:59:17;;;;;;;8.38;2.53;;;;;;;;;;5032328;28;20032;-63
2021/06/27 18:01:42;;;;;;;4.22;2.20;;;;;;;;;;5028687;28;20048;-64
2021/06/27 18:04:08;;;;;;;4.43;3.30;;;;;;;;;;5024503;28;20104;-64
2021/06/27 18:06:33;;;;;;;6.15;2.60;;;;;;;;;;5027323;28;20116;-64
2021/06/27 18:08:59;;;;;;;6.65;2.40;;;;;;;;;;5029659;28;20762;-64
2021/06/27 18:11:25;;;;;;;3.90;2.70;;;;;;;;;;5030655;28;20026;-64
2021/06/27 18:13:51;;;;;;;5.28;3.03;;;;;;;;;;5028500;28;20029;-63
2021/06/27 18:16:17;;;;;;;4.00;2.50;;;;;;;;;;5023671;28;20108;-64
2021/06/27 18:18:44;;;;;;;6.18;2.75;;;;;;;;;;5035805;28;20104;-64
2021/06/27 18:21:10;;;;;;;3.97;2.53;;;;;;;;;;5024667;28;20059;-64